Bates, Oregon
Current Conditions -  °F | °C
As of 3:35 AM on Tuesday 21 Oct 2014 (Local Time) from KGCD Reporting Station
Overcast Overcast  
Wind Chill: 43°   Ceiling: 6500
Heat Index: 45°   Visibility: 10mi
Dew Point: 44°   Wind: 5mph
Humidity: 95%   Direction: 220°SW
Pressure: 29.92"   Gusts: NA
Location:  44.59°N, 118.51°W
Report Text: KGCD 211035Z AUTO 22004KT 10SM OVC065 07/07 A2992 RMK AO2 T00730066
Loading
Personal Weather Stations






























Interactive Weather Map
Tropical Storm Tracking
New forecast layout! Learn more

10-Day Weather Forecast

Advertisements
Track Severe Weather on mobile